Boulder City, Nevada
Current Conditions -  °F | °C
As of 1:55 PM on Monday 20 Oct 2014 (Local Time) from KBVU Reporting Station
Clear Clear  
Wind Chill: 86°   Ceiling: Unl
Heat Index: 86°   Visibility: 10mi
Dew Point: 41°   Wind: 8mph
Humidity: 20%   Direction: 100°E
Pressure: 29.89"   Gusts: NA
Location:  35.98°N, 114.83°W
Report Text: KBVU 202055Z AUTO 10007KT 060V130 10SM CLR 30/05 A2989 RMK AO2
Loading
Personal Weather Stations






























Interactive Weather Map New forecast layout! Learn more

10-Day Weather Forecast

Advertisements
Track Severe Weather on mobile